createdAt,value
2018-03-17T00:02:36.268Z,11.50
2018-03-17T00:17:34.550Z,13.93
2018-03-17T00:32:36.577Z,13.80
2018-03-17T00:47:36.904Z,13.00
2018-03-17T01:02:37.395Z,13.17
2018-03-17T01:17:42.232Z,10.27
2018-03-17T01:32:37.412Z,11.60
2018-03-17T01:47:34.734Z,13.80
2018-03-17T02:02:36.824Z,15.93
2018-03-17T02:17:38.010Z,8.90
2018-03-17T02:32:38.240Z,11.80
2018-03-17T02:47:37.037Z,12.33
2018-03-17T03:02:40.229Z,10.60
2018-03-17T03:17:36.432Z,11.37
2018-03-17T03:32:37.249Z,10.17
2018-03-17T03:47:36.560Z,11.00
2018-03-17T04:17:37.594Z,13.40
2018-03-17T04:32:38.980Z,14.13
2018-03-17T05:47:34.342Z,20.47
2018-03-17T06:02:34.950Z,22.00
2018-03-17T06:17:34.752Z,17.17
2018-03-17T06:32:34.660Z,14.67
2018-03-17T06:47:34.092Z,14.37
2018-03-17T07:02:35.139Z,12.83
2018-03-17T07:17:35.153Z,15.20
2018-03-17T07:32:35.171Z,21.97
2018-03-17T07:47:35.083Z,15.63
2018-03-17T08:02:33.931Z,17.20
2018-03-17T08:17:35.374Z,21.00
2018-03-17T08:32:35.776Z,18.57
2018-03-17T08:47:36.200Z,13.43
2018-03-17T09:02:34.650Z,9.17
2018-03-17T09:17:36.429Z,8.03
2018-03-17T09:32:36.698Z,9.13
2018-03-17T09:47:33.966Z,6.80
2018-03-17T10:02:34.912Z,6.47
2018-03-17T10:17:36.709Z,5.90
2018-03-17T10:32:34.290Z,4.30
2018-03-17T10:47:34.613Z,7.53
2018-03-17T11:02:40.249Z,6.10
2018-03-17T11:17:35.067Z,10.00
2018-03-17T11:32:34.818Z,5.30
2018-03-17T11:47:34.812Z,7.70
2018-03-17T12:02:34.465Z,5.70
2018-03-17T12:17:37.266Z,8.07
2018-03-17T12:32:35.085Z,5.70
2018-03-17T12:47:35.173Z,8.90
2018-03-17T13:02:34.684Z,14.80
2018-03-17T13:17:34.487Z,9.20
2018-03-17T13:32:46.200Z,7.43
2018-03-17T13:47:33.774Z,9.13
2018-03-17T14:02:35.098Z,8.37
2018-03-17T14:17:34.613Z,11.40
2018-03-17T14:32:34.848Z,8.80
2018-03-17T14:47:34.567Z,8.40
2018-03-17T15:02:35.188Z,7.73
2018-03-17T15:17:35.111Z,9.50
2018-03-17T15:32:35.006Z,9.50
2018-03-17T15:47:35.046Z,5.10
2018-03-17T16:02:34.562Z,6.40
2018-03-17T16:17:34.337Z,7.07
2018-03-17T16:32:35.385Z,11.80
2018-03-17T16:47:35.253Z,8.10
2018-03-17T17:02:35.707Z,10.03
2018-03-17T17:17:34.470Z,5.70
2018-03-17T17:32:34.398Z,8.27
2018-03-17T17:47:36.296Z,16.73
2018-03-17T18:02:34.940Z,9.03
2018-03-17T18:17:36.991Z,8.70
2018-03-17T18:32:36.683Z,10.70
2018-03-17T18:47:39.591Z,12.77
2018-03-17T19:02:43.561Z,10.87
2018-03-17T19:17:37.831Z,15.30
2018-03-17T19:32:35.086Z,11.83
2018-03-17T20:02:38.956Z,12.77
2018-03-17T20:17:34.215Z,9.77
2018-03-17T20:32:38.543Z,11.97
2018-03-17T20:47:49.849Z,11.80
2018-03-17T21:02:37.417Z,12.70
2018-03-17T21:17:43.870Z,11.57
2018-03-17T21:32:37.540Z,12.67
2018-03-17T21:47:36.259Z,10.50
2018-03-17T22:02:36.966Z,18.83
2018-03-17T22:32:47.292Z,27.17
2018-03-17T22:47:34.618Z,21.30
2018-03-17T23:02:36.038Z,38.30
2018-03-17T23:17:34.906Z,40.17
2018-03-17T23:32:34.895Z,60.33
2018-03-17T23:47:34.808Z,43.23
